createdAt,value
2022-07-25T00:00:11.697Z,9.70
2022-07-25T00:02:38.504Z,9.85
2022-07-25T00:05:05.952Z,10.52
2022-07-25T00:07:32.672Z,10.05
2022-07-25T00:09:59.536Z,10.65
2022-07-25T00:12:26.273Z,10.07
2022-07-25T00:14:53.024Z,9.60
2022-07-25T00:17:19.751Z,10.73
2022-07-25T00:19:46.441Z,10.07
2022-07-25T00:22:13.501Z,10.15
2022-07-25T00:24:40.164Z,10.02
2022-07-25T00:27:08.626Z,9.77
2022-07-25T00:29:35.993Z,10.63
2022-07-25T00:34:29.343Z,10.27
2022-07-25T00:36:56.134Z,10.35
2022-07-25T00:39:23.005Z,10.45
2022-07-25T00:41:50.183Z,11.13
2022-07-25T00:44:28.598Z,10.05
2022-07-25T00:46:56.749Z,10.90
2022-07-25T00:49:24.691Z,9.85
2022-07-25T00:51:53.091Z,10.90
2022-07-25T00:54:20.350Z,10.90
2022-07-25T00:59:14.774Z,10.57
2022-07-25T01:01:42.626Z,9.95
2022-07-25T01:04:09.532Z,10.15
2022-07-25T01:06:36.490Z,10.48
2022-07-25T01:09:03.906Z,10.90
2022-07-25T01:11:30.690Z,10.38
2022-07-25T01:13:57.406Z,10.63
2022-07-25T01:16:24.275Z,11.10
2022-07-25T01:18:51.051Z,11.48
2022-07-25T01:21:17.738Z,11.27
2022-07-25T01:23:44.436Z,11.35
2022-07-25T01:26:11.186Z,12.20
2022-07-25T01:28:37.946Z,10.80
2022-07-25T01:31:04.835Z,11.60
2022-07-25T01:33:31.714Z,11.43
2022-07-25T01:35:58.439Z,10.15
2022-07-25T01:38:25.278Z,11.10
2022-07-25T01:40:52.203Z,10.35
2022-07-25T01:43:18.969Z,10.73
2022-07-25T01:45:45.742Z,10.88
2022-07-25T01:48:12.554Z,10.82
2022-07-25T01:50:39.415Z,10.80
2022-07-25T01:53:06.159Z,11.18
2022-07-25T01:55:32.909Z,11.10
2022-07-25T01:57:59.897Z,10.05
2022-07-25T02:00:26.677Z,11.18
2022-07-25T02:03:12.034Z,10.68
2022-07-25T02:05:38.907Z,10.60
2022-07-25T02:08:05.694Z,10.93
2022-07-25T02:10:32.922Z,11.00
2022-07-25T02:13:01.190Z,11.65
2022-07-25T02:15:27.985Z,11.57
2022-07-25T02:17:54.723Z,11.50
2022-07-25T02:20:21.495Z,10.15
2022-07-25T02:22:48.202Z,10.77
2022-07-25T02:25:14.932Z,11.52
2022-07-25T02:27:41.649Z,11.23
2022-07-25T02:30:08.803Z,11.15
2022-07-25T02:32:35.550Z,10.40
2022-07-25T02:35:02.246Z,12.00
2022-07-25T02:37:28.983Z,11.07
2022-07-25T02:39:55.744Z,12.00
2022-07-25T02:42:22.497Z,11.93
2022-07-25T02:44:49.241Z,12.65
2022-07-25T02:47:15.932Z,12.50
2022-07-25T02:49:42.702Z,12.85
2022-07-25T02:52:09.412Z,13.02
2022-07-25T02:54:36.103Z,12.75
2022-07-25T02:57:02.842Z,12.85
2022-07-25T02:59:32.388Z,12.52
2022-07-25T03:01:59.463Z,12.13
2022-07-25T03:04:26.656Z,13.68
2022-07-25T03:09:20.126Z,12.90
2022-07-25T03:11:46.973Z,12.48
2022-07-25T03:14:13.747Z,12.13
2022-07-25T03:16:40.736Z,11.98
2022-07-25T03:19:10.336Z,11.13
2022-07-25T03:21:40.038Z,11.75
2022-07-25T03:24:07.221Z,11.45
2022-07-25T03:29:00.728Z,12.55
2022-07-25T03:31:28.540Z,12.48
2022-07-25T03:33:55.365Z,12.85
2022-07-25T03:36:22.084Z,12.20
2022-07-25T03:38:48.800Z,12.95
2022-07-25T03:41:15.503Z,13.35
2022-07-25T03:43:42.255Z,12.50
2022-07-25T03:46:09.047Z,12.05
2022-07-25T03:48:35.856Z,12.13
2022-07-25T03:51:06.856Z,12.82
2022-07-25T03:53:54.385Z,12.35
2022-07-25T03:56:21.230Z,11.88
2022-07-25T03:58:47.931Z,13.30
2022-07-25T04:01:14.784Z,13.18
2022-07-25T04:03:41.579Z,12.70
2022-07-25T04:06:11.038Z,13.02
2022-07-25T04:08:38.545Z,14.35
2022-07-25T04:11:05.360Z,13.18
2022-07-25T04:13:32.185Z,13.52
2022-07-25T04:15:59.015Z,14.07
2022-07-25T04:18:27.421Z,12.98
2022-07-25T04:20:55.511Z,12.95
2022-07-25T04:23:22.215Z,12.82
2022-07-25T04:25:49.103Z,14.43
2022-07-25T04:28:15.835Z,12.27
2022-07-25T04:30:45.365Z,12.77
2022-07-25T04:33:13.088Z,13.07
2022-07-25T04:35:40.163Z,12.82
2022-07-25T04:38:11.935Z,13.00
2022-07-25T04:40:39.616Z,13.73
2022-07-25T04:43:08.432Z,13.23
2022-07-25T04:45:35.256Z,13.45
2022-07-25T04:48:02.772Z,13.25
2022-07-25T04:50:30.220Z,13.07
2022-07-25T04:52:56.970Z,12.88
2022-07-25T04:55:23.818Z,13.70
2022-07-25T04:57:50.643Z,13.32
2022-07-25T05:00:17.674Z,16.73
2022-07-25T05:02:44.696Z,14.07
2022-07-25T05:05:21.709Z,13.15
2022-07-25T05:07:50.014Z,13.45
2022-07-25T05:10:17.422Z,13.70
2022-07-25T05:12:44.128Z,13.43
2022-07-25T05:15:11.357Z,13.75
2022-07-25T05:20:05.458Z,12.70
2022-07-25T05:22:32.780Z,13.38
2022-07-25T05:25:02.247Z,14.05
2022-07-25T05:27:29.212Z,13.43
2022-07-25T05:29:56.002Z,14.20
2022-07-25T05:32:22.775Z,13.50
2022-07-25T05:34:49.469Z,13.35
2022-07-25T05:37:16.640Z,13.57
2022-07-25T05:39:43.705Z,13.18
2022-07-25T05:42:10.422Z,13.25
2022-07-25T05:44:37.166Z,14.05
2022-07-25T05:47:03.916Z,13.50
2022-07-25T05:49:30.900Z,14.00
2022-07-25T05:51:57.569Z,13.93
2022-07-25T05:54:24.254Z,12.98
2022-07-25T05:56:54.289Z,11.95
2022-07-25T05:59:21.008Z,13.02
2022-07-25T06:01:47.814Z,13.70
2022-07-25T06:04:14.573Z,12.68
2022-07-25T06:06:41.265Z,13.00
2022-07-25T06:09:08.596Z,13.43
2022-07-25T06:11:35.818Z,13.02
2022-07-25T06:14:17.957Z,13.18
2022-07-25T06:16:44.946Z,11.68
2022-07-25T06:19:11.767Z,13.50
2022-07-25T06:21:38.706Z,13.30
2022-07-25T06:24:05.774Z,13.88
2022-07-25T06:28:59.398Z,12.95
2022-07-25T06:31:26.224Z,14.35
2022-07-25T06:33:53.036Z,13.65
2022-07-25T06:36:19.743Z,13.50
2022-07-25T06:38:46.562Z,13.30
2022-07-25T06:41:16.719Z,13.65
2022-07-25T06:43:43.438Z,13.13
2022-07-25T06:46:10.213Z,12.65
2022-07-25T06:48:37.051Z,12.70
2022-07-25T06:51:04.870Z,13.20
2022-07-25T06:53:31.609Z,12.45
2022-07-25T06:55:58.419Z,12.43
2022-07-25T06:58:25.920Z,12.73
2022-07-25T07:00:52.765Z,12.27
2022-07-25T07:03:19.558Z,13.38
2022-07-25T07:05:46.335Z,12.13
2022-07-25T07:08:13.060Z,12.95
2022-07-25T07:10:40.229Z,11.98
2022-07-25T07:13:12.642Z,12.40
2022-07-25T07:15:43.634Z,12.57
2022-07-25T07:18:10.373Z,12.70
2022-07-25T07:20:37.089Z,12.57
2022-07-25T07:23:03.907Z,11.75
2022-07-25T07:25:31.197Z,11.95
2022-07-25T07:27:59.017Z,12.30
2022-07-25T07:30:44.212Z,13.20
2022-07-25T07:33:12.595Z,12.70
2022-07-25T07:35:39.841Z,11.55
2022-07-25T07:38:06.599Z,13.32
2022-07-25T07:40:33.422Z,12.45
2022-07-25T07:43:02.366Z,12.70
2022-07-25T07:45:29.849Z,12.85
2022-07-25T07:47:57.093Z,12.27
2022-07-25T07:50:28.118Z,12.65
2022-07-25T07:52:56.239Z,11.88
2022-07-25T07:55:42.201Z,12.93
2022-07-25T07:58:09.990Z,12.10
2022-07-25T08:00:39.181Z,12.60
2022-07-25T08:03:08.699Z,12.05
2022-07-25T08:05:43.063Z,12.80
2022-07-25T08:08:12.877Z,12.82
2022-07-25T08:10:45.243Z,12.35
2022-07-25T08:13:17.395Z,13.85
2022-07-25T08:15:46.951Z,13.10
2022-07-25T08:18:17.679Z,13.77
2022-07-25T08:20:45.790Z,13.75
2022-07-25T08:23:13.465Z,13.77
2022-07-25T08:25:41.782Z,12.18
2022-07-25T08:28:08.670Z,12.30
2022-07-25T08:33:05.597Z,13.10
2022-07-25T08:35:33.540Z,13.82
2022-07-25T08:38:01.337Z,13.35
2022-07-25T08:40:29.700Z,12.98
2022-07-25T08:42:58.333Z,13.10
2022-07-25T08:45:26.680Z,11.93
2022-07-25T08:47:54.703Z,13.32
2022-07-25T08:50:28.065Z,13.30
2022-07-25T08:53:16.278Z,13.63
2022-07-25T08:55:45.116Z,12.95
2022-07-25T08:58:16.063Z,13.57
2022-07-25T09:00:43.515Z,13.43
2022-07-25T09:03:11.148Z,12.80
2022-07-25T09:05:39.629Z,12.60
2022-07-25T09:08:17.534Z,12.57
2022-07-25T09:10:49.633Z,12.23
2022-07-25T09:13:17.910Z,12.98
2022-07-25T09:15:53.672Z,12.85
2022-07-25T09:18:25.379Z,13.90
2022-07-25T09:20:54.552Z,12.40
2022-07-25T09:23:38.560Z,13.15
2022-07-25T09:26:12.994Z,13.05
2022-07-25T09:28:40.760Z,12.23
2022-07-25T09:31:07.493Z,13.75
2022-07-25T09:36:10.763Z,13.07
2022-07-25T09:38:37.723Z,12.30
2022-07-25T09:41:04.577Z,12.32
2022-07-25T09:46:04.869Z,12.73
2022-07-25T09:48:32.245Z,12.75
2022-07-25T09:50:59.192Z,13.13
2022-07-25T09:53:26.334Z,12.90
2022-07-25T09:55:57.075Z,12.82
2022-07-25T09:58:24.935Z,12.90
2022-07-25T10:00:56.380Z,13.02
2022-07-25T10:03:44.945Z,13.25
2022-07-25T10:06:39.363Z,13.00
2022-07-25T10:09:13.779Z,12.52
2022-07-25T10:11:41.044Z,13.07
2022-07-25T10:14:12.141Z,12.77
2022-07-25T10:16:46.799Z,12.85
2022-07-25T10:19:13.841Z,12.95
2022-07-25T10:21:40.973Z,12.68
2022-07-25T10:24:10.290Z,13.35
2022-07-25T10:26:39.805Z,13.30
2022-07-25T10:29:11.328Z,13.70
2022-07-25T10:31:49.476Z,12.98
2022-07-25T10:34:31.718Z,13.35
2022-07-25T10:37:18.405Z,13.48
2022-07-25T10:39:46.415Z,13.63
2022-07-25T10:42:20.411Z,13.63
2022-07-25T10:45:09.423Z,13.13
2022-07-25T10:47:39.983Z,13.65
2022-07-25T10:50:25.614Z,12.73
2022-07-25T10:53:00.119Z,13.63
2022-07-25T10:55:28.898Z,13.80
2022-07-25T10:58:18.498Z,12.98
2022-07-25T11:00:45.341Z,14.00
2022-07-25T11:03:17.870Z,12.38
2022-07-25T11:05:48.426Z,13.48
2022-07-25T11:08:22.207Z,14.18
2022-07-25T11:10:53.240Z,12.88
2022-07-25T11:13:20.175Z,12.77
2022-07-25T11:15:47.059Z,12.93
2022-07-25T11:18:13.876Z,12.45
2022-07-25T11:20:40.634Z,13.30
2022-07-25T11:23:07.380Z,13.75
2022-07-25T11:25:34.090Z,12.77
2022-07-25T11:28:01.700Z,12.43
2022-07-25T11:30:29.609Z,12.50
2022-07-25T11:32:58.615Z,11.88
2022-07-25T11:35:28.436Z,10.95
2022-07-25T11:37:55.391Z,10.65
2022-07-25T11:40:23.240Z,10.38
2022-07-25T11:42:52.765Z,11.40
2022-07-25T11:45:24.441Z,11.35
2022-07-25T11:48:11.999Z,11.15
2022-07-25T11:50:44.241Z,10.98
2022-07-25T11:53:18.486Z,10.80
2022-07-25T11:55:45.268Z,10.95
2022-07-25T11:58:14.175Z,10.02
2022-07-25T12:00:43.210Z,10.07
2022-07-25T12:03:23.403Z,10.43
2022-07-25T12:05:50.567Z,10.30
2022-07-25T12:08:20.009Z,9.65
2022-07-25T12:10:48.507Z,8.00
2022-07-25T12:13:26.293Z,8.45
2022-07-25T12:15:53.768Z,7.15
2022-07-25T12:18:20.452Z,8.98
2022-07-25T12:20:47.201Z,9.23
2022-07-25T12:23:14.298Z,8.77
2022-07-25T12:25:44.244Z,8.77
2022-07-25T12:28:11.707Z,9.38
2022-07-25T12:30:40.567Z,9.05
2022-07-25T12:33:08.214Z,9.20
2022-07-25T12:35:37.311Z,9.30
2022-07-25T12:38:04.456Z,9.18
2022-07-25T12:40:31.292Z,9.27
2022-07-25T12:42:58.917Z,9.70
2022-07-25T12:45:26.554Z,8.70
2022-07-25T12:47:53.298Z,9.25
2022-07-25T12:50:20.089Z,8.65
2022-07-25T12:52:47.376Z,8.90
2022-07-25T12:55:17.241Z,8.63
2022-07-25T12:57:44.913Z,8.10
2022-07-25T13:00:17.156Z,9.10
2022-07-25T13:02:44.104Z,7.95
2022-07-25T13:05:10.908Z,7.65
2022-07-25T13:07:37.823Z,7.97
2022-07-25T13:10:05.717Z,7.55
2022-07-25T13:12:32.650Z,7.63
2022-07-25T13:14:59.742Z,7.10
2022-07-25T13:17:27.941Z,7.70
2022-07-25T13:19:56.514Z,7.78
2022-07-25T13:22:23.835Z,7.63
2022-07-25T13:24:50.923Z,7.93
2022-07-25T13:27:22.591Z,8.32
2022-07-25T13:29:56.188Z,7.72
2022-07-25T13:32:23.303Z,7.95
2022-07-25T13:34:50.256Z,7.25
2022-07-25T13:37:17.191Z,6.93
2022-07-25T13:39:43.996Z,7.15
2022-07-25T13:42:11.129Z,5.95
2022-07-25T13:44:37.931Z,6.32
2022-07-25T13:47:04.867Z,5.85
2022-07-25T13:49:32.248Z,5.85
2022-07-25T13:51:59.052Z,6.25
2022-07-25T13:54:25.768Z,5.57
2022-07-25T13:56:52.523Z,6.03
2022-07-25T13:59:21.740Z,5.93
2022-07-25T14:01:49.832Z,6.00
2022-07-25T14:04:16.883Z,6.40
2022-07-25T14:06:43.922Z,6.63
2022-07-25T14:09:11.050Z,5.43
2022-07-25T14:11:38.125Z,5.70
2022-07-25T14:14:04.833Z,5.82
2022-07-25T14:16:32.233Z,5.18
2022-07-25T14:18:58.958Z,6.00
2022-07-25T14:21:25.691Z,5.40
2022-07-25T14:23:52.574Z,5.80
2022-07-25T14:26:19.566Z,5.63
2022-07-25T14:28:46.321Z,5.95
2022-07-25T14:31:13.149Z,6.07
2022-07-25T14:33:40.540Z,6.05
2022-07-25T14:36:09.203Z,5.95
2022-07-25T14:38:36.054Z,6.05
2022-07-25T14:41:05.706Z,5.82
2022-07-25T14:43:35.841Z,5.93
2022-07-25T14:46:02.603Z,6.20
2022-07-25T14:48:29.451Z,5.50
2022-07-25T14:50:56.199Z,6.22
2022-07-25T14:53:22.920Z,5.65
2022-07-25T14:55:49.783Z,5.90
2022-07-25T14:58:16.529Z,6.20
2022-07-25T15:00:43.852Z,6.32
2022-07-25T15:03:10.810Z,6.80
2022-07-25T15:05:38.575Z,6.03
2022-07-25T15:08:06.444Z,6.28
2022-07-25T15:10:33.288Z,6.05
2022-07-25T15:13:20.813Z,6.07
2022-07-25T15:15:47.349Z,5.90
2022-07-25T15:18:14.961Z,6.45
2022-07-25T15:20:41.812Z,6.03
2022-07-25T15:23:08.582Z,6.05
2022-07-25T15:26:00.715Z,6.40
2022-07-25T15:28:22.250Z,6.60
2022-07-25T15:30:50.202Z,6.30
2022-07-25T15:33:18.186Z,5.72
2022-07-25T15:35:46.297Z,6.80
2022-07-25T15:38:16.818Z,5.95
2022-07-25T15:40:44.940Z,6.07
2022-07-25T15:43:12.289Z,6.53
2022-07-25T15:45:40.798Z,6.03
2022-07-25T15:48:09.220Z,6.70
2022-07-25T15:50:38.071Z,6.35
2022-07-25T15:53:05.799Z,6.57
2022-07-25T15:55:33.562Z,7.00
2022-07-25T15:58:00.931Z,6.13
2022-07-25T16:00:29.829Z,6.10
2022-07-25T16:02:57.234Z,5.88
2022-07-25T16:05:24.258Z,5.82
2022-07-25T16:07:51.022Z,6.28
2022-07-25T16:10:18.419Z,5.88
2022-07-25T16:12:45.416Z,6.20
2022-07-25T16:15:12.212Z,6.20
2022-07-25T16:17:39.138Z,6.35
2022-07-25T16:20:07.186Z,5.63
2022-07-25T16:22:34.207Z,6.35
2022-07-25T16:25:01.355Z,7.13
2022-07-25T16:27:28.678Z,6.35
2022-07-25T16:29:56.642Z,6.35
2022-07-25T16:32:23.817Z,6.15
2022-07-25T16:34:50.615Z,6.70
2022-07-25T16:37:17.358Z,6.75
2022-07-25T16:39:44.105Z,5.97
2022-07-25T16:42:10.876Z,6.60
2022-07-25T16:44:37.690Z,6.20
2022-07-25T16:47:04.654Z,6.40
2022-07-25T16:49:31.463Z,6.32
2022-07-25T16:51:58.155Z,6.93
2022-07-25T16:54:25.691Z,6.88
2022-07-25T16:56:54.251Z,6.30
2022-07-25T16:59:23.493Z,6.63
2022-07-25T17:01:50.385Z,6.50
2022-07-25T17:04:17.232Z,6.70
2022-07-25T17:06:44.015Z,6.32
2022-07-25T17:09:11.060Z,7.10
2022-07-25T17:11:37.873Z,7.45
2022-07-25T17:14:04.718Z,6.97
2022-07-25T17:16:32.540Z,7.13
2022-07-25T17:18:59.443Z,6.50
2022-07-25T17:21:26.190Z,6.55
2022-07-25T17:23:53.293Z,6.55
2022-07-25T17:26:20.869Z,7.25
2022-07-25T17:28:47.803Z,6.78
2022-07-25T17:31:14.948Z,6.40
2022-07-25T17:33:41.778Z,6.88
2022-07-25T17:36:09.293Z,6.40
2022-07-25T17:38:37.130Z,6.60
2022-07-25T17:41:04.392Z,6.68
2022-07-25T17:43:31.096Z,7.18
2022-07-25T17:48:24.553Z,6.50
2022-07-25T17:50:52.462Z,6.53
2022-07-25T17:53:19.310Z,7.28
2022-07-25T17:58:13.051Z,6.97
2022-07-25T18:00:39.992Z,7.10
2022-07-25T18:03:06.880Z,6.85
2022-07-25T18:05:34.018Z,6.55
2022-07-25T18:08:02.730Z,6.35
2022-07-25T18:10:29.957Z,6.97
2022-07-25T18:12:56.999Z,7.38
2022-07-25T18:15:23.817Z,7.20
2022-07-25T18:20:17.751Z,6.55
2022-07-25T18:22:45.269Z,6.93
2022-07-25T18:25:13.670Z,6.97
2022-07-25T18:27:42.049Z,6.55
2022-07-25T18:30:10.543Z,6.60
2022-07-25T18:32:38.593Z,7.25
2022-07-25T18:35:07.770Z,7.60
2022-07-25T18:37:35.371Z,7.18
2022-07-25T18:40:02.208Z,6.82
2022-07-25T18:42:30.051Z,8.68
2022-07-25T18:44:57.167Z,8.10
2022-07-25T18:47:26.434Z,7.00
2022-07-25T18:49:59.330Z,7.60
2022-07-25T18:52:26.606Z,6.97
2022-07-25T18:54:53.483Z,7.53
2022-07-25T18:59:47.082Z,6.40
2022-07-25T19:04:40.503Z,7.00
2022-07-25T19:07:08.843Z,7.00
2022-07-25T19:09:35.574Z,6.90
2022-07-25T19:12:02.304Z,7.20
2022-07-25T19:14:30.498Z,7.25
2022-07-25T19:16:58.179Z,6.53
2022-07-25T19:19:25.927Z,6.70
2022-07-25T19:21:53.945Z,6.28
2022-07-25T19:24:21.078Z,7.50
2022-07-25T19:26:48.846Z,6.80
2022-07-25T19:29:19.038Z,7.25
2022-07-25T19:31:45.935Z,6.88
2022-07-25T19:34:12.694Z,6.13
2022-07-25T19:36:39.399Z,6.18
2022-07-25T19:39:06.732Z,5.72
2022-07-25T19:41:33.980Z,5.63
2022-07-25T19:44:00.771Z,5.55
2022-07-25T19:46:31.152Z,5.07
2022-07-25T19:48:58.313Z,4.97
2022-07-25T19:51:25.580Z,4.90
2022-07-25T19:53:52.553Z,5.18
2022-07-25T19:56:20.095Z,4.95
2022-07-25T19:58:47.055Z,5.00
2022-07-25T20:01:13.937Z,5.03
2022-07-25T20:03:41.924Z,5.00
2022-07-25T20:06:09.122Z,4.90
2022-07-25T20:11:03.428Z,4.88
2022-07-25T20:13:30.165Z,5.18
2022-07-25T20:15:58.549Z,5.43
2022-07-25T20:18:25.576Z,5.38
2022-07-25T20:20:52.452Z,5.43
2022-07-25T20:23:19.212Z,4.75
2022-07-25T20:25:46.009Z,5.55
2022-07-25T20:28:13.225Z,4.97
2022-07-25T20:33:09.271Z,5.57
2022-07-25T20:35:37.857Z,4.82
2022-07-25T20:38:09.441Z,5.40
2022-07-25T20:40:45.083Z,5.60
2022-07-25T20:43:15.136Z,4.78
2022-07-25T20:45:42.202Z,5.68
2022-07-25T20:48:09.248Z,5.30
2022-07-25T20:50:37.422Z,5.20
2022-07-25T20:53:08.154Z,5.55
2022-07-25T20:55:35.376Z,5.13
2022-07-25T21:00:30.647Z,4.85
2022-07-25T21:02:58.756Z,4.55
2022-07-25T21:05:26.622Z,5.18
2022-07-25T21:07:53.495Z,4.85
2022-07-25T21:10:20.709Z,4.43
2022-07-25T21:12:47.476Z,4.38
2022-07-25T21:15:15.091Z,4.38
2022-07-25T21:17:41.934Z,4.07
2022-07-25T21:20:13.751Z,4.53
2022-07-25T21:22:41.372Z,4.00
2022-07-25T21:25:09.396Z,4.22
2022-07-25T21:27:37.605Z,4.35
2022-07-25T21:30:06.347Z,4.25
2022-07-25T21:32:33.067Z,4.50
2022-07-25T21:35:00.059Z,5.13
2022-07-25T21:37:26.894Z,4.60
2022-07-25T21:39:54.026Z,3.95
2022-07-25T21:42:20.717Z,4.30
2022-07-25T21:44:47.425Z,4.00
2022-07-25T21:47:14.192Z,3.92
2022-07-25T21:49:59.579Z,4.22
2022-07-25T21:52:34.863Z,4.28
2022-07-25T21:55:03.388Z,4.40
2022-07-25T21:57:30.315Z,4.57
2022-07-25T21:59:57.197Z,4.45
2022-07-25T22:02:23.955Z,4.57
2022-07-25T22:04:50.806Z,4.60
2022-07-25T22:07:17.892Z,4.43
2022-07-25T22:09:44.770Z,4.78
2022-07-25T22:12:11.630Z,4.20
2022-07-25T22:14:38.432Z,5.10
2022-07-25T22:17:05.756Z,4.70
2022-07-25T22:19:33.227Z,4.50
2022-07-25T22:22:00.030Z,4.57
2022-07-25T22:24:27.040Z,4.78
2022-07-25T22:26:53.887Z,3.97
2022-07-25T22:29:20.601Z,4.43
2022-07-25T22:31:54.224Z,4.25
2022-07-25T22:34:21.028Z,4.40
2022-07-25T22:36:47.879Z,4.03
2022-07-25T22:39:14.696Z,4.60
2022-07-25T22:41:41.560Z,4.32
2022-07-25T22:44:08.578Z,3.80
2022-07-25T22:46:35.824Z,4.53
2022-07-25T22:51:29.705Z,4.60
2022-07-25T22:53:57.520Z,4.85
2022-07-25T22:56:24.965Z,4.25
2022-07-25T22:58:52.161Z,5.05
2022-07-25T23:03:46.895Z,5.10
2022-07-25T23:06:13.674Z,4.95
2022-07-25T23:08:40.437Z,4.30
2022-07-25T23:11:07.617Z,4.65
2022-07-25T23:13:35.219Z,4.50
2022-07-25T23:16:03.634Z,4.60
2022-07-25T23:18:31.629Z,4.97
2022-07-25T23:23:25.876Z,5.00
2022-07-25T23:28:19.554Z,5.18
2022-07-25T23:30:46.375Z,3.95
2022-07-25T23:33:13.208Z,5.28
2022-07-25T23:35:40.004Z,4.68
2022-07-25T23:38:06.703Z,5.13
2022-07-25T23:40:33.463Z,5.18
2022-07-25T23:43:00.323Z,5.32
2022-07-25T23:45:28.047Z,5.35
2022-07-25T23:47:56.506Z,6.22
2022-07-25T23:50:24.141Z,5.15
2022-07-25T23:52:51.365Z,5.22
2022-07-25T23:55:18.107Z,5.18
2022-07-25T23:57:44.933Z,5.32
